sensor_id;sensor_type;location;lat;lon;timestamp;temperature;humidity
23744;DHT22;12052;53.478;10.182;2023-12-29T00:01:57;10.20;99.90
23744;DHT22;12052;53.478;10.182;2023-12-29T00:04:25;10.10;99.90
23744;DHT22;12052;53.478;10.182;2023-12-29T00:06:50;9.90;99.90
23744;DHT22;12052;53.478;10.182;2023-12-29T00:09:16;9.90;99.90
23744;DHT22;12052;53.478;10.182;2023-12-29T00:11:42;9.70;99.90
23744;DHT22;12052;53.478;10.182;2023-12-29T00:14:32;9.70;99.90
23744;DHT22;12052;53.478;10.182;2023-12-29T00:17:19;9.60;99.90
23744;DHT22;12052;53.478;10.182;2023-12-29T00:20:28;9.50;99.90
23744;DHT22;12052;53.478;10.182;2023-12-29T00:26:25;9.30;99.90
23744;DHT22;12052;53.478;10.182;2023-12-29T00:29:27;9.30;99.90
23744;DHT22;12052;53.478;10.182;2023-12-29T00:32:12;9.30;99.90
23744;DHT22;12052;53.478;10.182;2023-12-29T00:34:38;9.30;99.90
23744;DHT22;12052;53.478;10.182;2023-12-29T00:37:05;9.30;99.90
23744;DHT22;12052;53.478;10.182;2023-12-29T00:39:32;9.30;99.90
23744;DHT22;12052;53.478;10.182;2023-12-29T00:42:05;9.30;99.90
23744;DHT22;12052;53.478;10.182;2023-12-29T00:44:34;9.40;99.90
23744;DHT22;12052;53.478;10.182;2023-12-29T00:47:00;9.40;99.90
23744;DHT22;12052;53.478;10.182;2023-12-29T00:49:26;9.50;99.90
23744;DHT22;12052;53.478;10.182;2023-12-29T00:51:52;9.50;99.90
23744;DHT22;12052;53.478;10.182;2023-12-29T00:54:17;9.50;99.90
23744;DHT22;12052;53.478;10.182;2023-12-29T00:56:52;9.60;99.90
23744;DHT22;12052;53.478;10.182;2023-12-29T00:59:19;9.60;99.90
23744;DHT22;12052;53.478;10.182;2023-12-29T01:01:47;9.70;99.90
23744;DHT22;12052;53.478;10.182;2023-12-29T01:04:13;9.70;99.90
23744;DHT22;12052;53.478;10.182;2023-12-29T01:06:38;9.80;99.90
23744;DHT22;12052;53.478;10.182;2023-12-29T01:09:06;9.80;99.90
23744;DHT22;12052;53.478;10.182;2023-12-29T01:11:31;9.80;99.90
23744;DHT22;12052;53.478;10.182;2023-12-29T01:13:57;9.80;99.90
23744;DHT22;12052;53.478;10.182;2023-12-29T01:16:22;9.90;99.90
23744;DHT22;12052;53.478;10.182;2023-12-29T01:18:48;9.90;99.90
23744;DHT22;12052;53.478;10.182;2023-12-29T01:21:13;9.90;99.90
23744;DHT22;12052;53.478;10.182;2023-12-29T01:23:39;9.90;99.90
23744;DHT22;12052;53.478;10.182;2023-12-29T01:26:05;9.90;99.90
23744;DHT22;12052;53.478;10.182;2023-12-29T01:28:31;9.90;99.90
23744;DHT22;12052;53.478;10.182;2023-12-29T01:30:57;9.90;99.90
23744;DHT22;12052;53.478;10.182;2023-12-29T01:33:24;9.90;99.90
23744;DHT22;12052;53.478;10.182;2023-12-29T01:35:49;10.00;99.90
23744;DHT22;12052;53.478;10.182;2023-12-29T01:38:15;9.90;99.90
23744;DHT22;12052;53.478;10.182;2023-12-29T01:40:47;9.80;99.90
23744;DHT22;12052;53.478;10.182;2023-12-29T01:43:13;9.90;99.90
23744;DHT22;12052;53.478;10.182;2023-12-29T01:45:39;9.80;99.90
23744;DHT22;12052;53.478;10.182;2023-12-29T01:48:05;9.80;99.90
23744;DHT22;12052;53.478;10.182;2023-12-29T01:50:30;9.90;99.90
23744;DHT22;12052;53.478;10.182;2023-12-29T01:52:57;9.90;99.90
23744;DHT22;12052;53.478;10.182;2023-12-29T01:55:24;9.90;99.90
23744;DHT22;12052;53.478;10.182;2023-12-29T01:57:51;9.90;99.90
23744;DHT22;12052;53.478;10.182;2023-12-29T02:00:17;10.00;99.90
23744;DHT22;12052;53.478;10.182;2023-12-29T02:02:44;9.90;99.90
23744;DHT22;12052;53.478;10.182;2023-12-29T02:05:13;9.90;99.90
23744;DHT22;12052;53.478;10.182;2023-12-29T02:07:43;9.80;99.90
23744;DHT22;12052;53.478;10.182;2023-12-29T02:10:09;9.80;99.90
23744;DHT22;12052;53.478;10.182;2023-12-29T02:12:39;9.70;99.90
23744;DHT22;12052;53.478;10.182;2023-12-29T02:15:05;9.70;99.90
23744;DHT22;12052;53.478;10.182;2023-12-29T02:17:38;9.70;99.90
23744;DHT22;12052;53.478;10.182;2023-12-29T02:20:05;9.70;99.90
23744;DHT22;12052;53.478;10.182;2023-12-29T02:22:32;9.60;99.90
23744;DHT22;12052;53.478;10.182;2023-12-29T02:24:58;9.60;99.90
23744;DHT22;12052;53.478;10.182;2023-12-29T02:33:03;9.60;99.90
23744;DHT22;12052;53.478;10.182;2023-12-29T02:35:34;9.70;99.90
23744;DHT22;12052;53.478;10.182;2023-12-29T02:38:01;9.70;99.90
23744;DHT22;12052;53.478;10.182;2023-12-29T02:40:27;9.70;99.90
23744;DHT22;12052;53.478;10.182;2023-12-29T02:42:53;9.70;99.90
23744;DHT22;12052;53.478;10.182;2023-12-29T02:45:18;9.60;99.90
23744;DHT22;12052;53.478;10.182;2023-12-29T02:47:44;9.60;99.90
23744;DHT22;12052;53.478;10.182;2023-12-29T02:50:10;9.70;99.90
23744;DHT22;12052;53.478;10.182;2023-12-29T02:52:36;9.70;99.90
23744;DHT22;12052;53.478;10.182;2023-12-29T02:55:02;9.70;99.90
23744;DHT22;12052;53.478;10.182;2023-12-29T02:57:30;9.70;99.90
23744;DHT22;12052;53.478;10.182;2023-12-29T02:59:56;9.70;99.90
23744;DHT22;12052;53.478;10.182;2023-12-29T03:02:22;9.70;99.90
23744;DHT22;12052;53.478;10.182;2023-12-29T03:04:48;9.70;99.90
23744;DHT22;12052;53.478;10.182;2023-12-29T03:07:14;9.70;99.90
23744;DHT22;12052;53.478;10.182;2023-12-29T03:09:40;9.70;99.90
23744;DHT22;12052;53.478;10.182;2023-12-29T03:12:06;9.70;99.90
23744;DHT22;12052;53.478;10.182;2023-12-29T03:14:42;9.60;99.90
23744;DHT22;12052;53.478;10.182;2023-12-29T03:17:36;9.60;99.90
23744;DHT22;12052;53.478;10.182;2023-12-29T03:20:24;9.60;99.90
23744;DHT22;12052;53.478;10.182;2023-12-29T03:23:13;9.50;99.90
23744;DHT22;12052;53.478;10.182;2023-12-29T03:25:55;9.40;99.90
23744;DHT22;12052;53.478;10.182;2023-12-29T03:28:24;9.30;99.90
23744;DHT22;12052;53.478;10.182;2023-12-29T03:30:50;9.30;99.90
23744;DHT22;12052;53.478;10.182;2023-12-29T03:33:16;9.20;99.90
23744;DHT22;12052;53.478;10.182;2023-12-29T03:35:45;9.20;99.90
23744;DHT22;12052;53.478;10.182;2023-12-29T03:38:10;9.10;99.90
23744;DHT22;12052;53.478;10.182;2023-12-29T03:40:36;9.00;99.90
23744;DHT22;12052;53.478;10.182;2023-12-29T03:43:01;9.00;99.90
23744;DHT22;12052;53.478;10.182;2023-12-29T03:45:27;9.00;99.90
23744;DHT22;12052;53.478;10.182;2023-12-29T03:47:53;9.00;99.90
23744;DHT22;12052;53.478;10.182;2023-12-29T03:50:19;8.90;99.90
23744;DHT22;12052;53.478;10.182;2023-12-29T03:52:44;9.00;99.90
23744;DHT22;12052;53.478;10.182;2023-12-29T03:55:10;8.90;99.90
23744;DHT22;12052;53.478;10.182;2023-12-29T03:57:36;9.00;99.90
23744;DHT22;12052;53.478;10.182;2023-12-29T04:00:03;9.00;99.90
23744;DHT22;12052;53.478;10.182;2023-12-29T04:02:29;9.00;99.90
23744;DHT22;12052;53.478;10.182;2023-12-29T04:04:55;9.00;99.90
23744;DHT22;12052;53.478;10.182;2023-12-29T04:07:20;9.00;99.90
23744;DHT22;12052;53.478;10.182;2023-12-29T04:09:50;9.00;99.90
23744;DHT22;12052;53.478;10.182;2023-12-29T04:12:22;9.00;99.90
23744;DHT22;12052;53.478;10.182;2023-12-29T04:14:48;8.80;99.90
23744;DHT22;12052;53.478;10.182;2023-12-29T04:17:14;8.70;99.90
23744;DHT22;12052;53.478;10.182;2023-12-29T04:19:40;8.40;99.90
23744;DHT22;12052;53.478;10.182;2023-12-29T04:22:07;7.70;99.90
23744;DHT22;12052;53.478;10.182;2023-12-29T04:24:33;7.40;99.90
23744;DHT22;12052;53.478;10.182;2023-12-29T04:26:59;7.10;99.90
23744;DHT22;12052;53.478;10.182;2023-12-29T04:29:27;7.10;99.90
23744;DHT22;12052;53.478;10.182;2023-12-29T04:31:57;7.00;99.90
23744;DHT22;12052;53.478;10.182;2023-12-29T04:34:33;6.90;99.90
23744;DHT22;12052;53.478;10.182;2023-12-29T04:37:16;6.80;99.90
23744;DHT22;12052;53.478;10.182;2023-12-29T04:39:42;6.80;99.90
23744;DHT22;12052;53.478;10.182;2023-12-29T04:42:08;6.70;99.90
23744;DHT22;12052;53.478;10.182;2023-12-29T04:44:34;6.70;99.90
23744;DHT22;12052;53.478;10.182;2023-12-29T04:46:59;6.70;99.90
23744;DHT22;12052;53.478;10.182;2023-12-29T04:49:25;6.60;99.90
23744;DHT22;12052;53.478;10.182;2023-12-29T04:51:50;6.60;99.90
23744;DHT22;12052;53.478;10.182;2023-12-29T04:54:16;6.60;99.90
23744;DHT22;12052;53.478;10.182;2023-12-29T04:56:42;6.50;99.90
23744;DHT22;12052;53.478;10.182;2023-12-29T04:59:08;6.50;99.90
23744;DHT22;12052;53.478;10.182;2023-12-29T05:01:33;6.40;99.90
23744;DHT22;12052;53.478;10.182;2023-12-29T05:04:00;6.40;99.90
23744;DHT22;12052;53.478;10.182;2023-12-29T05:06:40;6.30;99.90
23744;DHT22;12052;53.478;10.182;2023-12-29T05:09:50;6.30;99.90
23744;DHT22;12052;53.478;10.182;2023-12-29T05:12:42;6.30;99.90
23744;DHT22;12052;53.478;10.182;2023-12-29T05:15:08;6.30;99.90
23744;DHT22;12052;53.478;10.182;2023-12-29T05:17:33;6.40;99.90
23744;DHT22;12052;53.478;10.182;2023-12-29T05:19:59;6.40;99.90
23744;DHT22;12052;53.478;10.182;2023-12-29T05:22:28;6.40;99.90
23744;DHT22;12052;53.478;10.182;2023-12-29T05:25:06;6.40;99.90
23744;DHT22;12052;53.478;10.182;2023-12-29T05:27:52;6.50;99.90
23744;DHT22;12052;53.478;10.182;2023-12-29T05:30:18;6.50;99.90
23744;DHT22;12052;53.478;10.182;2023-12-29T05:33:09;6.50;99.90
23744;DHT22;12052;53.478;10.182;2023-12-29T05:35:54;6.50;99.90
23744;DHT22;12052;53.478;10.182;2023-12-29T05:38:34;6.60;99.90
23744;DHT22;12052;53.478;10.182;2023-12-29T05:41:01;6.60;99.90
23744;DHT22;12052;53.478;10.182;2023-12-29T05:43:29;6.60;99.90
23744;DHT22;12052;53.478;10.182;2023-12-29T05:45:55;6.60;99.90
23744;DHT22;12052;53.478;10.182;2023-12-29T05:48:21;6.60;99.90
23744;DHT22;12052;53.478;10.182;2023-12-29T05:50:49;6.60;99.90
23744;DHT22;12052;53.478;10.182;2023-12-29T05:53:21;6.60;99.90
23744;DHT22;12052;53.478;10.182;2023-12-29T05:55:49;6.60;99.90
23744;DHT22;12052;53.478;10.182;2023-12-29T05:58:15;6.70;99.90
23744;DHT22;12052;53.478;10.182;2023-12-29T06:00:42;6.70;99.90
23744;DHT22;12052;53.478;10.182;2023-12-29T06:03:07;6.80;99.90
23744;DHT22;12052;53.478;10.182;2023-12-29T06:05:33;6.80;99.90
23744;DHT22;12052;53.478;10.182;2023-12-29T06:07:59;6.80;99.90
23744;DHT22;12052;53.478;10.182;2023-12-29T06:10:25;6.90;99.90
23744;DHT22;12052;53.478;10.182;2023-12-29T06:12:50;6.90;99.90
23744;DHT22;12052;53.478;10.182;2023-12-29T06:15:16;6.90;99.90
23744;DHT22;12052;53.478;10.182;2023-12-29T06:17:42;6.90;99.90
23744;DHT22;12052;53.478;10.182;2023-12-29T06:20:08;7.00;99.90
23744;DHT22;12052;53.478;10.182;2023-12-29T06:22:39;7.00;99.90
23744;DHT22;12052;53.478;10.182;2023-12-29T06:25:08;7.00;99.90
23744;DHT22;12052;53.478;10.182;2023-12-29T06:27:33;7.00;99.90
23744;DHT22;12052;53.478;10.182;2023-12-29T06:30:03;7.00;99.90
23744;DHT22;12052;53.478;10.182;2023-12-29T06:32:29;7.00;99.90
23744;DHT22;12052;53.478;10.182;2023-12-29T06:34:55;7.00;99.90
23744;DHT22;12052;53.478;10.182;2023-12-29T06:37:20;7.00;99.90
23744;DHT22;12052;53.478;10.182;2023-12-29T06:39:46;7.10;99.90
23744;DHT22;12052;53.478;10.182;2023-12-29T06:42:12;7.10;99.90
23744;DHT22;12052;53.478;10.182;2023-12-29T06:44:37;7.10;99.90
23744;DHT22;12052;53.478;10.182;2023-12-29T06:47:06;7.10;99.90
23744;DHT22;12052;53.478;10.182;2023-12-29T06:49:54;7.10;99.90
23744;DHT22;12052;53.478;10.182;2023-12-29T06:52:20;7.10;99.90
23744;DHT22;12052;53.478;10.182;2023-12-29T06:54:46;7.10;99.90
23744;DHT22;12052;53.478;10.182;2023-12-29T06:57:11;7.20;99.90
23744;DHT22;12052;53.478;10.182;2023-12-29T06:59:39;7.20;99.90
23744;DHT22;12052;53.478;10.182;2023-12-29T07:02:05;7.30;99.90
23744;DHT22;12052;53.478;10.182;2023-12-29T07:04:31;7.30;99.90
23744;DHT22;12052;53.478;10.182;2023-12-29T07:06:56;7.30;99.90
23744;DHT22;12052;53.478;10.182;2023-12-29T07:09:22;7.30;99.90
23744;DHT22;12052;53.478;10.182;2023-12-29T07:11:48;7.30;99.90
23744;DHT22;12052;53.478;10.182;2023-12-29T07:14:15;7.20;99.90
23744;DHT22;12052;53.478;10.182;2023-12-29T07:16:40;7.20;99.90
23744;DHT22;12052;53.478;10.182;2023-12-29T07:19:06;7.20;99.90
23744;DHT22;12052;53.478;10.182;2023-12-29T07:21:32;7.20;99.90
23744;DHT22;12052;53.478;10.182;2023-12-29T07:23:57;7.20;99.90
23744;DHT22;12052;53.478;10.182;2023-12-29T07:26:23;7.20;99.90
23744;DHT22;12052;53.478;10.182;2023-12-29T07:28:49;7.20;99.90
23744;DHT22;12052;53.478;10.182;2023-12-29T07:31:22;7.20;99.90
23744;DHT22;12052;53.478;10.182;2023-12-29T07:33:48;7.20;99.90
23744;DHT22;12052;53.478;10.182;2023-12-29T07:36:14;7.30;99.90
23744;DHT22;12052;53.478;10.182;2023-12-29T07:38:40;7.20;99.90
23744;DHT22;12052;53.478;10.182;2023-12-29T07:41:05;7.30;99.90
23744;DHT22;12052;53.478;10.182;2023-12-29T07:43:31;7.30;99.90
23744;DHT22;12052;53.478;10.182;2023-12-29T07:45:57;7.30;99.90
23744;DHT22;12052;53.478;10.182;2023-12-29T07:48:23;7.40;99.90
23744;DHT22;12052;53.478;10.182;2023-12-29T07:50:49;7.40;99.90
23744;DHT22;12052;53.478;10.182;2023-12-29T07:53:14;7.40;99.90
23744;DHT22;12052;53.478;10.182;2023-12-29T07:55:42;7.50;99.90
23744;DHT22;12052;53.478;10.182;2023-12-29T07:58:08;7.50;99.90
23744;DHT22;12052;53.478;10.182;2023-12-29T08:00:36;7.60;99.90
23744;DHT22;12052;53.478;10.182;2023-12-29T08:03:02;7.70;99.90
23744;DHT22;12052;53.478;10.182;2023-12-29T08:05:27;7.70;99.90
23744;DHT22;12052;53.478;10.182;2023-12-29T08:07:53;7.80;99.90
23744;DHT22;12052;53.478;10.182;2023-12-29T08:10:20;7.80;99.90
23744;DHT22;12052;53.478;10.182;2023-12-29T08:12:45;7.90;99.90
23744;DHT22;12052;53.478;10.182;2023-12-29T08:15:11;7.90;99.90
23744;DHT22;12052;53.478;10.182;2023-12-29T08:17:37;7.90;99.90
23744;DHT22;12052;53.478;10.182;2023-12-29T08:20:04;7.90;99.90
23744;DHT22;12052;53.478;10.182;2023-12-29T08:22:30;8.00;99.90
23744;DHT22;12052;53.478;10.182;2023-12-29T08:24:56;8.00;99.90
23744;DHT22;12052;53.478;10.182;2023-12-29T08:27:27;8.00;99.90
23744;DHT22;12052;53.478;10.182;2023-12-29T08:29:53;7.90;99.90
23744;DHT22;12052;53.478;10.182;2023-12-29T08:32:19;7.90;99.90
23744;DHT22;12052;53.478;10.182;2023-12-29T08:34:45;8.00;99.90
23744;DHT22;12052;53.478;10.182;2023-12-29T08:37:10;7.90;99.90
23744;DHT22;12052;53.478;10.182;2023-12-29T08:39:36;8.00;99.90
23744;DHT22;12052;53.478;10.182;2023-12-29T08:42:01;8.00;99.90
23744;DHT22;12052;53.478;10.182;2023-12-29T08:44:27;8.00;99.90
23744;DHT22;12052;53.478;10.182;2023-12-29T08:46:53;8.00;99.90
23744;DHT22;12052;53.478;10.182;2023-12-29T08:49:18;8.10;99.90
23744;DHT22;12052;53.478;10.182;2023-12-29T08:51:44;8.10;99.90
23744;DHT22;12052;53.478;10.182;2023-12-29T08:54:10;8.20;99.90
23744;DHT22;12052;53.478;10.182;2023-12-29T08:56:35;8.30;99.90
23744;DHT22;12052;53.478;10.182;2023-12-29T08:59:01;8.30;99.90
23744;DHT22;12052;53.478;10.182;2023-12-29T09:01:26;8.30;99.90
23744;DHT22;12052;53.478;10.182;2023-12-29T09:03:52;8.30;99.90
23744;DHT22;12052;53.478;10.182;2023-12-29T09:06:18;8.30;99.90
23744;DHT22;12052;53.478;10.182;2023-12-29T09:08:44;8.30;99.90
23744;DHT22;12052;53.478;10.182;2023-12-29T09:11:09;8.30;99.90
23744;DHT22;12052;53.478;10.182;2023-12-29T09:13:35;8.30;99.90
23744;DHT22;12052;53.478;10.182;2023-12-29T09:16:00;8.40;99.90
23744;DHT22;12052;53.478;10.182;2023-12-29T09:18:26;8.40;99.90
23744;DHT22;12052;53.478;10.182;2023-12-29T09:20:52;8.50;99.90
23744;DHT22;12052;53.478;10.182;2023-12-29T09:23:17;8.50;99.90
23744;DHT22;12052;53.478;10.182;2023-12-29T09:25:43;8.50;99.90
23744;DHT22;12052;53.478;10.182;2023-12-29T09:28:09;8.50;99.90
23744;DHT22;12052;53.478;10.182;2023-12-29T09:30:34;8.50;99.90
23744;DHT22;12052;53.478;10.182;2023-12-29T09:33:00;8.40;99.90
23744;DHT22;12052;53.478;10.182;2023-12-29T09:35:26;8.50;99.90
23744;DHT22;12052;53.478;10.182;2023-12-29T09:37:51;8.50;99.90
23744;DHT22;12052;53.478;10.182;2023-12-29T09:40:17;8.40;99.90
23744;DHT22;12052;53.478;10.182;2023-12-29T09:42:43;8.30;99.90
23744;DHT22;12052;53.478;10.182;2023-12-29T09:45:13;8.20;99.90
23744;DHT22;12052;53.478;10.182;2023-12-29T09:47:40;8.00;99.90
23744;DHT22;12052;53.478;10.182;2023-12-29T09:50:13;7.90;99.90
23744;DHT22;12052;53.478;10.182;2023-12-29T09:52:39;7.70;99.90
23744;DHT22;12052;53.478;10.182;2023-12-29T09:55:08;7.60;99.90
23744;DHT22;12052;53.478;10.182;2023-12-29T09:57:38;7.50;99.90
23744;DHT22;12052;53.478;10.182;2023-12-29T10:00:05;7.40;99.90
23744;DHT22;12052;53.478;10.182;2023-12-29T10:02:31;7.40;99.90
23744;DHT22;12052;53.478;10.182;2023-12-29T10:04:58;7.30;99.90
23744;DHT22;12052;53.478;10.182;2023-12-29T10:07:25;7.30;99.90
23744;DHT22;12052;53.478;10.182;2023-12-29T10:09:55;7.30;99.90
23744;DHT22;12052;53.478;10.182;2023-12-29T10:12:21;7.20;99.90
23744;DHT22;12052;53.478;10.182;2023-12-29T10:18:02;7.20;99.90
23744;DHT22;12052;53.478;10.182;2023-12-29T10:21:03;7.20;99.90
23744;DHT22;12052;53.478;10.182;2023-12-29T10:23:38;7.20;99.90
23744;DHT22;12052;53.478;10.182;2023-12-29T10:26:07;7.30;99.90
23744;DHT22;12052;53.478;10.182;2023-12-29T10:28:32;7.30;99.90
23744;DHT22;12052;53.478;10.182;2023-12-29T10:30:59;7.30;99.90
23744;DHT22;12052;53.478;10.182;2023-12-29T10:33:25;7.30;99.90
23744;DHT22;12052;53.478;10.182;2023-12-29T10:36:01;7.30;99.90
23744;DHT22;12052;53.478;10.182;2023-12-29T10:38:32;7.30;99.90
23744;DHT22;12052;53.478;10.182;2023-12-29T10:41:16;7.40;99.90
23744;DHT22;12052;53.478;10.182;2023-12-29T10:43:43;7.40;99.90
23744;DHT22;12052;53.478;10.182;2023-12-29T10:46:10;7.40;99.90
23744;DHT22;12052;53.478;10.182;2023-12-29T10:48:36;7.40;99.90
23744;DHT22;12052;53.478;10.182;2023-12-29T10:51:04;7.40;99.90
23744;DHT22;12052;53.478;10.182;2023-12-29T10:53:33;7.50;99.90
23744;DHT22;12052;53.478;10.182;2023-12-29T10:55:59;7.40;99.90
23744;DHT22;12052;53.478;10.182;2023-12-29T10:58:26;7.50;99.90
23744;DHT22;12052;53.478;10.182;2023-12-29T11:00:58;7.50;99.90
23744;DHT22;12052;53.478;10.182;2023-12-29T11:03:25;7.60;99.90
23744;DHT22;12052;53.478;10.182;2023-12-29T11:06:01;7.60;99.90
23744;DHT22;12052;53.478;10.182;2023-12-29T11:08:26;7.70;99.90
23744;DHT22;12052;53.478;10.182;2023-12-29T11:10:54;7.70;99.90
23744;DHT22;12052;53.478;10.182;2023-12-29T11:13:20;7.80;99.90
23744;DHT22;12052;53.478;10.182;2023-12-29T11:15:47;7.80;99.90
23744;DHT22;12052;53.478;10.182;2023-12-29T11:18:16;7.90;99.90
23744;DHT22;12052;53.478;10.182;2023-12-29T11:20:44;8.00;99.90
23744;DHT22;12052;53.478;10.182;2023-12-29T11:23:10;8.00;99.90
23744;DHT22;12052;53.478;10.182;2023-12-29T11:25:39;8.10;99.90
23744;DHT22;12052;53.478;10.182;2023-12-29T11:28:11;8.10;99.90
23744;DHT22;12052;53.478;10.182;2023-12-29T11:30:40;8.10;99.90
23744;DHT22;12052;53.478;10.182;2023-12-29T11:33:10;8.20;99.90
23744;DHT22;12052;53.478;10.182;2023-12-29T11:35:56;8.20;99.90
23744;DHT22;12052;53.478;10.182;2023-12-29T11:41:05;8.20;99.90
23744;DHT22;12052;53.478;10.182;2023-12-29T11:43:32;8.30;99.90
23744;DHT22;12052;53.478;10.182;2023-12-29T11:45:58;8.20;99.90
23744;DHT22;12052;53.478;10.182;2023-12-29T11:48:56;8.20;99.90
23744;DHT22;12052;53.478;10.182;2023-12-29T11:51:35;8.10;99.90
23744;DHT22;12052;53.478;10.182;2023-12-29T11:54:05;8.10;99.90
23744;DHT22;12052;53.478;10.182;2023-12-29T11:56:40;8.10;99.90
23744;DHT22;12052;53.478;10.182;2023-12-29T11:59:25;8.10;99.90
23744;DHT22;12052;53.478;10.182;2023-12-29T12:01:53;8.10;99.90
23744;DHT22;12052;53.478;10.182;2023-12-29T12:04:43;8.10;99.90
23744;DHT22;12052;53.478;10.182;2023-12-29T12:07:56;8.10;99.90
23744;DHT22;12052;53.478;10.182;2023-12-29T12:12:50;8.20;99.90
23744;DHT22;12052;53.478;10.182;2023-12-29T12:17:53;8.20;99.90
23744;DHT22;12052;53.478;10.182;2023-12-29T12:20:18;8.20;99.90
23744;DHT22;12052;53.478;10.182;2023-12-29T12:22:44;8.20;99.90
23744;DHT22;12052;53.478;10.182;2023-12-29T12:25:14;8.20;99.90
23744;DHT22;12052;53.478;10.182;2023-12-29T12:27:40;8.30;99.90
23744;DHT22;12052;53.478;10.182;2023-12-29T12:30:09;8.30;99.90
23744;DHT22;12052;53.478;10.182;2023-12-29T12:32:35;8.30;99.90
23744;DHT22;12052;53.478;10.182;2023-12-29T12:35:01;8.40;99.90
23744;DHT22;12052;53.478;10.182;2023-12-29T12:37:30;8.30;99.90
23744;DHT22;12052;53.478;10.182;2023-12-29T12:39:56;8.30;99.90
23744;DHT22;12052;53.478;10.182;2023-12-29T12:42:22;8.30;99.90
23744;DHT22;12052;53.478;10.182;2023-12-29T12:45:12;8.30;99.90
23744;DHT22;12052;53.478;10.182;2023-12-29T12:47:44;8.30;99.90
23744;DHT22;12052;53.478;10.182;2023-12-29T12:50:11;8.30;99.90
23744;DHT22;12052;53.478;10.182;2023-12-29T12:52:38;8.30;99.90
23744;DHT22;12052;53.478;10.182;2023-12-29T12:55:05;8.30;99.90
23744;DHT22;12052;53.478;10.182;2023-12-29T12:57:32;8.30;99.90
23744;DHT22;12052;53.478;10.182;2023-12-29T13:00:00;8.40;99.90
23744;DHT22;12052;53.478;10.182;2023-12-29T13:02:26;8.40;99.90
23744;DHT22;12052;53.478;10.182;2023-12-29T13:04:52;8.50;99.90
23744;DHT22;12052;53.478;10.182;2023-12-29T13:07:19;8.60;99.90
23744;DHT22;12052;53.478;10.182;2023-12-29T13:09:45;8.70;99.90
23744;DHT22;12052;53.478;10.182;2023-12-29T13:12:12;8.80;99.90
23744;DHT22;12052;53.478;10.182;2023-12-29T13:14:39;8.80;99.90
23744;DHT22;12052;53.478;10.182;2023-12-29T13:17:09;8.90;99.90
23744;DHT22;12052;53.478;10.182;2023-12-29T13:19:36;9.00;99.90
23744;DHT22;12052;53.478;10.182;2023-12-29T13:22:06;9.00;99.90
23744;DHT22;12052;53.478;10.182;2023-12-29T13:24:32;8.90;99.90
23744;DHT22;12052;53.478;10.182;2023-12-29T13:27:05;8.90;99.90
23744;DHT22;12052;53.478;10.182;2023-12-29T13:29:31;8.90;99.90
23744;DHT22;12052;53.478;10.182;2023-12-29T13:32:05;8.80;99.90
23744;DHT22;12052;53.478;10.182;2023-12-29T13:37:15;8.60;99.90
23744;DHT22;12052;53.478;10.182;2023-12-29T13:39:53;8.60;99.90
23744;DHT22;12052;53.478;10.182;2023-12-29T13:42:22;8.50;99.90
23744;DHT22;12052;53.478;10.182;2023-12-29T13:44:50;8.40;99.90
23744;DHT22;12052;53.478;10.182;2023-12-29T13:47:17;8.30;99.90
23744;DHT22;12052;53.478;10.182;2023-12-29T13:49:43;8.30;99.90
23744;DHT22;12052;53.478;10.182;2023-12-29T13:52:09;8.20;99.90
23744;DHT22;12052;53.478;10.182;2023-12-29T13:54:43;8.20;99.90
23744;DHT22;12052;53.478;10.182;2023-12-29T13:57:09;8.20;99.90
23744;DHT22;12052;53.478;10.182;2023-12-29T13:59:35;8.20;99.90
23744;DHT22;12052;53.478;10.182;2023-12-29T14:04:44;8.20;99.90
23744;DHT22;12052;53.478;10.182;2023-12-29T14:07:11;8.20;99.90
23744;DHT22;12052;53.478;10.182;2023-12-29T14:09:37;8.20;99.90
23744;DHT22;12052;53.478;10.182;2023-12-29T14:12:03;8.20;99.90
23744;DHT22;12052;53.478;10.182;2023-12-29T14:14:29;8.20;99.90
23744;DHT22;12052;53.478;10.182;2023-12-29T14:16:54;8.10;99.90
23744;DHT22;12052;53.478;10.182;2023-12-29T14:19:20;8.10;99.90
23744;DHT22;12052;53.478;10.182;2023-12-29T14:21:55;8.10;99.90
23744;DHT22;12052;53.478;10.182;2023-12-29T14:24:21;8.00;99.90
23744;DHT22;12052;53.478;10.182;2023-12-29T14:29:18;8.00;99.90
23744;DHT22;12052;53.478;10.182;2023-12-29T14:31:45;7.90;99.90
23744;DHT22;12052;53.478;10.182;2023-12-29T14:34:11;8.00;99.90
23744;DHT22;12052;53.478;10.182;2023-12-29T14:36:40;7.90;99.90
23744;DHT22;12052;53.478;10.182;2023-12-29T14:39:06;7.90;99.90
23744;DHT22;12052;53.478;10.182;2023-12-29T14:41:33;7.90;99.90
23744;DHT22;12052;53.478;10.182;2023-12-29T14:43:59;7.90;99.90
23744;DHT22;12052;53.478;10.182;2023-12-29T14:46:24;7.90;99.90
23744;DHT22;12052;53.478;10.182;2023-12-29T14:48:51;7.90;99.90
23744;DHT22;12052;53.478;10.182;2023-12-29T14:51:18;7.90;99.90
23744;DHT22;12052;53.478;10.182;2023-12-29T14:53:47;7.90;99.90
23744;DHT22;12052;53.478;10.182;2023-12-29T14:56:14;7.90;99.90
23744;DHT22;12052;53.478;10.182;2023-12-29T14:58:40;7.80;99.90
23744;DHT22;12052;53.478;10.182;2023-12-29T15:01:06;7.90;99.90
23744;DHT22;12052;53.478;10.182;2023-12-29T15:03:33;7.90;99.90
23744;DHT22;12052;53.478;10.182;2023-12-29T15:06:00;7.90;99.90
23744;DHT22;12052;53.478;10.182;2023-12-29T15:08:26;7.90;99.90
23744;DHT22;12052;53.478;10.182;2023-12-29T15:10:53;7.90;99.90
23744;DHT22;12052;53.478;10.182;2023-12-29T15:13:19;8.00;99.90
23744;DHT22;12052;53.478;10.182;2023-12-29T15:15:45;7.90;99.90
23744;DHT22;12052;53.478;10.182;2023-12-29T15:18:10;7.90;99.90
23744;DHT22;12052;53.478;10.182;2023-12-29T15:20:37;7.90;99.90
23744;DHT22;12052;53.478;10.182;2023-12-29T15:23:03;7.90;99.90
23744;DHT22;12052;53.478;10.182;2023-12-29T15:25:29;8.00;99.90
23744;DHT22;12052;53.478;10.182;2023-12-29T15:27:55;7.90;99.90
23744;DHT22;12052;53.478;10.182;2023-12-29T15:30:26;8.00;99.90
23744;DHT22;12052;53.478;10.182;2023-12-29T15:32:52;7.90;99.90
23744;DHT22;12052;53.478;10.182;2023-12-29T15:35:18;7.90;99.90
23744;DHT22;12052;53.478;10.182;2023-12-29T15:37:44;7.90;99.90
23744;DHT22;12052;53.478;10.182;2023-12-29T15:40:09;7.80;99.90
23744;DHT22;12052;53.478;10.182;2023-12-29T15:42:39;7.80;99.90
23744;DHT22;12052;53.478;10.182;2023-12-29T15:45:05;7.80;99.90
23744;DHT22;12052;53.478;10.182;2023-12-29T15:47:31;7.80;99.90
23744;DHT22;12052;53.478;10.182;2023-12-29T15:49:57;7.80;99.90
23744;DHT22;12052;53.478;10.182;2023-12-29T15:52:22;7.80;99.90
23744;DHT22;12052;53.478;10.182;2023-12-29T15:54:49;7.80;99.90
23744;DHT22;12052;53.478;10.182;2023-12-29T15:57:15;7.90;99.90
23744;DHT22;12052;53.478;10.182;2023-12-29T15:59:43;7.90;99.90
23744;DHT22;12052;53.478;10.182;2023-12-29T16:02:11;7.90;99.90
23744;DHT22;12052;53.478;10.182;2023-12-29T16:04:38;7.90;99.90
23744;DHT22;12052;53.478;10.182;2023-12-29T16:07:06;7.90;99.90